createdAt,value
2023-06-25T00:00:45.471Z,16.40
2023-06-25T00:03:15.410Z,16.30
2023-06-25T00:05:44.664Z,16.30
2023-06-25T00:08:12.802Z,16.30
2023-06-25T00:10:41.194Z,16.20
2023-06-25T00:13:09.330Z,16.10
2023-06-25T00:15:37.461Z,16.20
2023-06-25T00:18:05.905Z,16.30
2023-06-25T00:20:36.002Z,16.30
2023-06-25T00:23:07.497Z,16.10
2023-06-25T00:25:37.001Z,16.10
2023-06-25T00:28:09.691Z,16.00
2023-06-25T00:30:39.811Z,15.90
2023-06-25T00:33:08.405Z,15.90
2023-06-25T00:36:08.029Z,15.90
2023-06-25T00:38:38.553Z,15.80
2023-06-25T00:41:08.926Z,15.70
2023-06-25T00:43:38.198Z,15.70
2023-06-25T00:46:06.485Z,15.70
2023-06-25T00:48:34.752Z,15.70
2023-06-25T00:51:04.536Z,15.70
2023-06-25T00:53:36.626Z,15.60
2023-06-25T00:56:05.893Z,15.60
2023-06-25T00:58:38.690Z,15.60
2023-06-25T01:01:21.518Z,15.60
2023-06-25T01:04:01.567Z,15.50
2023-06-25T01:06:36.790Z,15.40
2023-06-25T01:09:07.342Z,15.40
2023-06-25T01:11:36.378Z,15.50
2023-06-25T01:14:05.073Z,15.50
2023-06-25T01:16:33.821Z,15.50
2023-06-25T01:19:05.611Z,15.50
2023-06-25T01:21:37.716Z,15.60
2023-06-25T01:24:08.363Z,15.50
2023-06-25T01:26:37.126Z,15.60
2023-06-25T01:29:05.399Z,15.50
2023-06-25T01:31:33.901Z,15.40
2023-06-25T01:34:02.417Z,15.10
2023-06-25T01:36:33.485Z,15.00
2023-06-25T01:39:01.725Z,15.00
2023-06-25T01:41:31.331Z,15.00
2023-06-25T01:43:59.721Z,14.90
2023-06-25T01:46:28.138Z,15.00
2023-06-25T01:48:56.597Z,14.90
2023-06-25T01:51:25.229Z,14.80
2023-06-25T01:53:53.589Z,14.80
2023-06-25T01:56:21.993Z,14.80
2023-06-25T01:58:54.107Z,14.80
2023-06-25T02:01:23.452Z,14.80
2023-06-25T02:03:52.100Z,14.90
2023-06-25T02:06:20.865Z,14.90
2023-06-25T02:08:49.437Z,14.80
2023-06-25T02:11:17.783Z,14.90
2023-06-25T02:13:46.349Z,14.80
2023-06-25T02:16:16.416Z,14.80
2023-06-25T02:18:44.834Z,14.90
2023-06-25T02:21:13.353Z,14.80
2023-06-25T02:23:42.899Z,14.70
2023-06-25T02:26:11.732Z,14.60
2023-06-25T02:28:40.131Z,14.70
2023-06-25T02:31:26.164Z,14.70
2023-06-25T02:33:57.562Z,14.50
2023-06-25T02:36:26.035Z,14.40
2023-06-25T02:38:54.366Z,14.30
2023-06-25T02:41:23.087Z,14.20
2023-06-25T02:43:51.782Z,14.10
2023-06-25T02:46:21.704Z,14.10
2023-06-25T02:48:53.145Z,14.10
2023-06-25T02:51:21.925Z,14.10
2023-06-25T02:53:50.288Z,14.10
2023-06-25T02:56:18.950Z,14.10
2023-06-25T02:58:47.490Z,14.10
2023-06-25T03:01:15.967Z,14.10
2023-06-25T03:03:45.660Z,14.20
2023-06-25T03:06:14.012Z,14.20
2023-06-25T03:08:42.646Z,14.20
2023-06-25T03:11:10.963Z,14.20
2023-06-25T03:13:39.206Z,14.20
2023-06-25T03:16:07.510Z,14.20
2023-06-25T03:18:36.363Z,14.20
2023-06-25T03:21:05.968Z,14.30
2023-06-25T03:23:34.258Z,14.30
2023-06-25T03:26:02.858Z,14.40
2023-06-25T03:28:31.525Z,14.30
2023-06-25T03:30:59.907Z,14.20
2023-06-25T03:33:28.304Z,14.20
2023-06-25T03:35:57.043Z,14.10
2023-06-25T03:38:26.756Z,14.10
2023-06-25T03:40:55.550Z,14.00
2023-06-25T03:43:23.985Z,14.00
2023-06-25T03:45:52.557Z,14.00
2023-06-25T03:48:21.863Z,14.10
2023-06-25T03:50:50.294Z,14.10
2023-06-25T03:53:19.524Z,14.10
2023-06-25T03:55:49.266Z,14.10
2023-06-25T03:58:20.870Z,14.10
2023-06-25T04:00:49.146Z,14.00
2023-06-25T04:03:17.512Z,14.00
2023-06-25T04:05:46.963Z,14.00
2023-06-25T04:08:15.411Z,14.10
2023-06-25T04:10:44.168Z,14.10
2023-06-25T04:13:14.035Z,14.20
2023-06-25T04:15:42.589Z,14.30
2023-06-25T04:18:10.778Z,14.30
2023-06-25T04:20:39.182Z,14.40
2023-06-25T04:23:07.372Z,14.50
2023-06-25T04:25:36.159Z,14.50
2023-06-25T04:28:08.594Z,14.60
2023-06-25T04:30:38.354Z,14.70
2023-06-25T04:33:08.119Z,14.80
2023-06-25T04:35:37.048Z,14.90
2023-06-25T04:38:05.725Z,15.00
2023-06-25T04:40:34.055Z,15.00
2023-06-25T04:43:02.536Z,15.20
2023-06-25T04:45:30.794Z,15.40
2023-06-25T04:48:00.449Z,15.50
2023-06-25T04:50:28.816Z,15.70
2023-06-25T04:52:57.065Z,15.90
2023-06-25T04:55:25.460Z,16.00
2023-06-25T04:57:53.803Z,16.10
2023-06-25T05:00:22.643Z,16.30
2023-06-25T05:02:50.907Z,16.40
2023-06-25T05:05:20.893Z,16.60
2023-06-25T05:07:49.822Z,16.70
2023-06-25T05:10:18.548Z,16.90
2023-06-25T05:12:48.360Z,17.00
2023-06-25T05:15:17.760Z,17.20
2023-06-25T05:17:46.121Z,17.30
2023-06-25T05:20:14.766Z,17.60
2023-06-25T05:22:44.292Z,18.40
2023-06-25T05:25:12.605Z,20.00
2023-06-25T05:27:40.685Z,21.60
2023-06-25T05:30:10.520Z,22.70
2023-06-25T05:32:38.680Z,23.70
2023-06-25T05:35:07.917Z,24.80
2023-06-25T05:37:36.066Z,25.30
2023-06-25T05:40:07.323Z,25.80
2023-06-25T05:42:35.401Z,26.20
2023-06-25T05:45:03.541Z,26.50
2023-06-25T05:47:31.656Z,26.30
2023-06-25T05:49:59.816Z,26.50
2023-06-25T05:52:27.950Z,26.80
2023-06-25T05:54:56.068Z,27.10
2023-06-25T05:57:26.496Z,27.40
2023-06-25T05:59:54.688Z,28.00
2023-06-25T06:02:22.886Z,28.40
2023-06-25T06:04:50.975Z,28.40
2023-06-25T06:07:19.101Z,28.20
2023-06-25T06:09:47.246Z,28.10
2023-06-25T06:12:15.696Z,28.90
2023-06-25T06:14:45.132Z,29.10
2023-06-25T06:17:13.243Z,29.30
2023-06-25T06:19:41.360Z,29.70
2023-06-25T06:22:09.466Z,30.20
2023-06-25T06:24:37.559Z,30.30
2023-06-25T06:27:06.832Z,30.10
2023-06-25T06:29:34.911Z,29.90
2023-06-25T06:32:04.850Z,29.70
2023-06-25T06:34:32.904Z,30.20
2023-06-25T06:37:02.225Z,31.10
2023-06-25T06:39:30.327Z,31.50
2023-06-25T06:41:58.493Z,31.30
2023-06-25T06:44:26.665Z,31.70
2023-06-25T06:46:55.413Z,32.00
2023-06-25T06:49:24.885Z,32.70
2023-06-25T06:51:52.932Z,32.90
2023-06-25T06:54:21.258Z,32.50
2023-06-25T06:56:49.699Z,32.40
2023-06-25T06:59:17.775Z,32.10
2023-06-25T07:01:45.871Z,32.20
2023-06-25T07:04:15.663Z,32.60
2023-06-25T07:06:46.806Z,32.60
2023-06-25T07:09:15.339Z,33.10
2023-06-25T07:11:43.391Z,33.70
2023-06-25T07:14:11.439Z,34.60
2023-06-25T07:16:43.216Z,35.20
2023-06-25T07:19:11.325Z,35.10
2023-06-25T07:21:39.483Z,34.80
2023-06-25T07:24:09.584Z,35.10
2023-06-25T07:26:37.771Z,35.20
2023-06-25T07:29:05.851Z,35.60
2023-06-25T07:31:33.996Z,35.30
2023-06-25T07:34:02.169Z,35.30
2023-06-25T07:36:30.236Z,36.00
2023-06-25T07:38:59.821Z,37.10
2023-06-25T07:41:29.234Z,37.80
2023-06-25T07:43:57.652Z,38.00
2023-06-25T07:46:26.374Z,37.60
2023-06-25T07:48:54.549Z,38.20
2023-06-25T07:51:22.781Z,38.70
2023-06-25T07:53:50.844Z,38.30
2023-06-25T07:56:18.947Z,39.10
2023-06-25T07:58:48.505Z,40.20
2023-06-25T08:01:16.561Z,40.50
2023-06-25T08:03:44.792Z,40.20
2023-06-25T08:06:12.967Z,39.80
2023-06-25T08:08:42.107Z,39.50
2023-06-25T08:11:10.144Z,39.10
2023-06-25T08:13:38.456Z,39.60
2023-06-25T08:16:08.075Z,39.30
2023-06-25T08:18:36.120Z,39.50
2023-06-25T08:21:06.233Z,39.30
2023-06-25T08:23:35.523Z,39.90
2023-06-25T08:26:03.865Z,40.00
2023-06-25T08:28:32.257Z,39.90
2023-06-25T08:31:00.463Z,39.50
2023-06-25T08:33:29.920Z,39.30
2023-06-25T08:35:58.233Z,39.50
2023-06-25T08:38:27.370Z,39.90
2023-06-25T08:40:56.957Z,41.30
2023-06-25T08:43:25.380Z,40.40
2023-06-25T08:45:53.457Z,38.80
2023-06-25T08:48:24.738Z,38.30
2023-06-25T08:50:58.487Z,38.40
2023-06-25T08:53:28.028Z,39.20
2023-06-25T08:55:57.707Z,38.80
2023-06-25T08:58:26.365Z,38.80
2023-06-25T09:00:54.511Z,38.30
2023-06-25T09:03:22.871Z,37.60
2023-06-25T09:05:58.491Z,38.00
2023-06-25T09:08:28.678Z,38.90
2023-06-25T09:10:58.909Z,38.40
2023-06-25T09:13:29.397Z,38.60
2023-06-25T09:16:04.166Z,39.30
2023-06-25T09:18:32.693Z,39.50
2023-06-25T09:21:06.488Z,39.20
2023-06-25T09:23:36.894Z,39.10
2023-06-25T09:26:09.895Z,38.60
2023-06-25T09:28:50.344Z,38.30
2023-06-25T09:31:19.272Z,38.40
2023-06-25T09:33:53.353Z,38.10
2023-06-25T09:38:54.817Z,39.80
2023-06-25T09:41:25.830Z,40.20
2023-06-25T09:43:58.260Z,40.10
2023-06-25T09:46:29.319Z,39.70
2023-06-25T09:49:00.969Z,40.10
2023-06-25T09:51:51.928Z,39.50
2023-06-25T09:54:24.577Z,39.10
2023-06-25T09:56:53.706Z,39.20
2023-06-25T09:59:24.705Z,38.80
2023-06-25T10:01:54.880Z,39.50
2023-06-25T10:04:24.056Z,40.00
2023-06-25T10:06:56.012Z,40.00
2023-06-25T10:09:24.130Z,39.20
2023-06-25T10:11:53.121Z,38.20
2023-06-25T10:14:21.319Z,38.50
2023-06-25T10:16:59.153Z,38.30
2023-06-25T10:19:29.292Z,38.10
2023-06-25T10:22:06.624Z,36.90
2023-06-25T10:24:50.144Z,37.00
2023-06-25T10:27:23.961Z,39.10
2023-06-25T10:29:53.903Z,40.20
2023-06-25T10:32:22.366Z,40.60
2023-06-25T10:34:55.657Z,41.50
2023-06-25T10:37:31.581Z,39.90
2023-06-25T10:40:06.054Z,38.50
2023-06-25T10:42:34.422Z,38.80
2023-06-25T10:45:02.601Z,38.70
2023-06-25T10:47:31.190Z,38.50
2023-06-25T10:49:59.305Z,38.30
2023-06-25T10:52:29.441Z,38.50
2023-06-25T10:54:57.924Z,38.70
2023-06-25T10:57:27.774Z,38.60
2023-06-25T10:59:55.885Z,38.00
2023-06-25T11:02:24.909Z,37.20
2023-06-25T11:04:54.296Z,37.40
2023-06-25T11:07:24.183Z,37.50
2023-06-25T11:09:56.944Z,38.20
2023-06-25T11:12:25.109Z,37.30
2023-06-25T11:14:53.187Z,37.80
2023-06-25T11:17:21.677Z,37.30
2023-06-25T11:19:53.280Z,37.00
2023-06-25T11:22:22.192Z,37.90
2023-06-25T11:24:53.220Z,38.30
2023-06-25T11:27:28.273Z,38.60
2023-06-25T11:29:58.109Z,38.40
2023-06-25T11:32:32.150Z,38.70
2023-06-25T11:35:01.385Z,39.30
2023-06-25T11:37:29.585Z,38.90
2023-06-25T11:39:59.526Z,38.10
2023-06-25T11:42:28.233Z,37.90
2023-06-25T11:45:08.771Z,37.70
2023-06-25T11:47:36.858Z,38.10
2023-06-25T11:50:05.522Z,38.60
2023-06-25T11:52:34.916Z,38.40
2023-06-25T11:55:04.581Z,38.00
2023-06-25T11:57:32.656Z,37.70
2023-06-25T12:00:00.867Z,38.60
2023-06-25T12:02:40.895Z,39.90
2023-06-25T12:05:14.205Z,40.40
2023-06-25T12:07:42.268Z,39.60
2023-06-25T12:10:12.194Z,38.50
2023-06-25T12:12:40.343Z,37.90
2023-06-25T12:15:09.068Z,38.30
2023-06-25T12:17:37.224Z,39.10
2023-06-25T12:20:05.908Z,40.00
2023-06-25T12:22:34.038Z,40.30
2023-06-25T12:25:02.203Z,40.50
2023-06-25T12:27:31.637Z,39.70
2023-06-25T12:29:59.729Z,37.90
2023-06-25T12:32:27.802Z,38.90
2023-06-25T12:34:55.909Z,39.80
2023-06-25T12:37:23.973Z,40.90
2023-06-25T12:39:52.125Z,40.80
2023-06-25T12:42:20.283Z,40.20
2023-06-25T12:44:49.766Z,39.90
2023-06-25T12:47:18.091Z,39.70
2023-06-25T12:49:46.187Z,39.10
2023-06-25T12:52:14.238Z,39.00
2023-06-25T12:54:43.856Z,38.00
2023-06-25T12:57:11.933Z,38.00
2023-06-25T12:59:40.010Z,37.50
2023-06-25T13:02:09.679Z,38.00
2023-06-25T13:04:37.843Z,39.00
2023-06-25T13:07:06.147Z,39.60
2023-06-25T13:09:35.172Z,39.70
2023-06-25T13:12:03.252Z,39.40
2023-06-25T13:14:31.354Z,38.60
2023-06-25T13:16:59.437Z,39.20
2023-06-25T13:19:28.927Z,39.60
2023-06-25T13:21:57.031Z,39.50
2023-06-25T13:24:25.503Z,39.50
2023-06-25T13:26:54.346Z,38.20
2023-06-25T13:29:22.473Z,38.20
2023-06-25T13:31:50.770Z,38.30
2023-06-25T13:34:18.852Z,38.40
2023-06-25T13:36:48.444Z,39.00
2023-06-25T13:39:16.472Z,38.80
2023-06-25T13:41:44.913Z,38.90
2023-06-25T13:44:13.022Z,39.50
2023-06-25T13:46:41.316Z,40.20
2023-06-25T13:49:09.421Z,39.80
2023-06-25T13:51:37.768Z,38.40
2023-06-25T13:54:07.488Z,38.10
2023-06-25T13:56:35.789Z,38.50
2023-06-25T13:59:03.978Z,38.10
2023-06-25T14:01:32.055Z,37.90
2023-06-25T14:04:00.228Z,38.30
2023-06-25T14:06:28.345Z,38.10
2023-06-25T14:08:56.458Z,38.10
2023-06-25T14:11:26.064Z,38.00
2023-06-25T14:13:54.193Z,37.80
2023-06-25T14:16:22.230Z,38.10
2023-06-25T14:18:52.840Z,38.00
2023-06-25T14:21:20.948Z,38.30
2023-06-25T14:23:50.238Z,38.50
2023-06-25T14:26:18.385Z,37.80
2023-06-25T14:28:55.475Z,37.40
2023-06-25T14:31:30.383Z,37.80
2023-06-25T14:33:58.493Z,37.70
2023-06-25T14:36:26.589Z,38.00
2023-06-25T14:38:54.637Z,37.70
2023-06-25T14:41:22.745Z,38.00
2023-06-25T14:43:52.234Z,38.30
2023-06-25T14:46:20.324Z,38.70
2023-06-25T14:48:48.416Z,38.70
2023-06-25T14:51:16.456Z,38.00
2023-06-25T14:53:44.584Z,38.00
2023-06-25T14:56:12.866Z,38.00
2023-06-25T14:58:41.001Z,37.50
2023-06-25T15:01:10.466Z,37.40
2023-06-25T15:03:38.760Z,37.40
2023-06-25T15:06:13.399Z,37.70
2023-06-25T15:08:46.086Z,37.60
2023-06-25T15:11:14.365Z,37.80
2023-06-25T15:13:42.456Z,37.60
2023-06-25T15:16:13.878Z,37.90
2023-06-25T15:18:41.941Z,37.70
2023-06-25T15:21:10.729Z,37.40
2023-06-25T15:23:38.763Z,36.90
2023-06-25T15:26:09.448Z,37.30
2023-06-25T15:28:37.565Z,37.20
2023-06-25T15:31:05.721Z,37.40
2023-06-25T15:33:35.165Z,37.30
2023-06-25T15:36:03.304Z,36.60
2023-06-25T15:38:31.517Z,35.90
2023-06-25T15:40:59.582Z,35.70
2023-06-25T15:43:27.704Z,35.30
2023-06-25T15:45:55.839Z,35.70
2023-06-25T15:48:23.944Z,36.00
2023-06-25T15:50:53.960Z,36.20
2023-06-25T15:53:22.166Z,36.10
2023-06-25T15:55:50.237Z,35.70
2023-06-25T15:58:18.351Z,35.70
2023-06-25T16:00:48.045Z,35.50
2023-06-25T16:03:16.587Z,35.70
2023-06-25T16:05:45.025Z,35.70
2023-06-25T16:08:14.466Z,35.30
2023-06-25T16:10:42.554Z,35.10
2023-06-25T16:13:10.638Z,35.20
2023-06-25T16:15:38.972Z,34.60
2023-06-25T16:18:07.360Z,34.70
2023-06-25T16:20:35.451Z,34.90
2023-06-25T16:23:03.485Z,35.30
2023-06-25T16:25:33.142Z,35.30
2023-06-25T16:28:01.272Z,34.70
2023-06-25T16:30:29.318Z,34.60
2023-06-25T16:32:57.463Z,34.40
2023-06-25T16:35:25.735Z,34.50
2023-06-25T16:37:53.837Z,34.60
2023-06-25T16:40:21.891Z,34.90
2023-06-25T16:42:51.341Z,35.10
2023-06-25T16:45:20.682Z,35.30
2023-06-25T16:47:48.837Z,35.50
2023-06-25T16:50:18.201Z,35.60
2023-06-25T16:52:46.347Z,35.70
2023-06-25T16:55:14.403Z,35.80
2023-06-25T16:57:42.413Z,36.10
2023-06-25T17:00:13.787Z,36.30
2023-06-25T17:02:44.410Z,36.40
2023-06-25T17:05:12.778Z,36.60
2023-06-25T17:07:40.905Z,36.40
2023-06-25T17:10:09.670Z,36.00
2023-06-25T17:12:37.742Z,36.10
2023-06-25T17:15:06.666Z,36.10
2023-06-25T17:17:36.162Z,36.10
2023-06-25T17:20:04.943Z,35.90
2023-06-25T17:22:33.002Z,35.70
2023-06-25T17:25:01.058Z,36.10
2023-06-25T17:27:29.477Z,35.90
2023-06-25T17:29:57.644Z,35.50
2023-06-25T17:32:25.763Z,35.10
2023-06-25T17:34:55.759Z,35.10
2023-06-25T17:37:24.085Z,35.50
2023-06-25T17:39:52.194Z,35.50
2023-06-25T17:42:20.258Z,35.60
2023-06-25T17:44:48.744Z,35.60
2023-06-25T17:47:16.896Z,35.30
2023-06-25T17:49:44.925Z,35.00
2023-06-25T17:52:14.635Z,34.90
2023-06-25T17:54:42.685Z,34.90
2023-06-25T17:57:11.060Z,34.80
2023-06-25T17:59:39.138Z,34.80
2023-06-25T18:02:08.060Z,34.90
2023-06-25T18:04:38.304Z,34.90
2023-06-25T18:07:08.369Z,34.30
2023-06-25T18:09:38.982Z,33.50
2023-06-25T18:12:07.879Z,32.60
2023-06-25T18:14:35.999Z,32.00
2023-06-25T18:17:07.678Z,31.50
2023-06-25T18:19:35.769Z,31.10
2023-06-25T18:22:03.925Z,30.80
2023-06-25T18:24:32.040Z,30.50
2023-06-25T18:27:01.459Z,30.20
2023-06-25T18:29:29.686Z,30.00
2023-06-25T18:31:57.822Z,29.80
2023-06-25T18:34:25.895Z,29.60
2023-06-25T18:36:53.998Z,29.60
2023-06-25T18:39:22.368Z,29.50
2023-06-25T18:41:50.544Z,29.20
2023-06-25T18:44:20.046Z,29.00
2023-06-25T18:46:48.135Z,28.80
2023-06-25T18:49:16.221Z,28.60
2023-06-25T18:51:44.294Z,28.30
2023-06-25T18:54:12.382Z,28.00
2023-06-25T18:56:42.400Z,27.80
2023-06-25T18:59:12.668Z,27.50
2023-06-25T19:01:42.276Z,27.20
2023-06-25T19:04:10.421Z,26.90
2023-06-25T19:06:38.563Z,26.70
2023-06-25T19:09:06.645Z,26.60
2023-06-25T19:11:34.701Z,26.40
2023-06-25T19:14:04.262Z,26.30
2023-06-25T19:16:32.570Z,26.10
2023-06-25T19:19:02.055Z,25.90
2023-06-25T19:21:30.150Z,25.70
2023-06-25T19:23:58.212Z,25.40
2023-06-25T19:26:26.350Z,25.30
2023-06-25T19:28:54.498Z,25.00
2023-06-25T19:31:22.701Z,24.80
2023-06-25T19:33:50.955Z,24.60
2023-06-25T19:36:20.401Z,24.40
2023-06-25T19:38:49.408Z,24.20
2023-06-25T19:41:17.763Z,23.90
2023-06-25T19:43:45.840Z,23.70
2023-06-25T19:46:14.087Z,23.60
2023-06-25T19:48:42.326Z,23.40
2023-06-25T19:51:12.066Z,23.20
2023-06-25T19:53:41.591Z,23.10
2023-06-25T19:56:13.529Z,22.90
2023-06-25T19:58:41.810Z,22.70
2023-06-25T20:01:09.901Z,22.50
2023-06-25T20:03:37.967Z,22.30
2023-06-25T20:06:06.076Z,22.00
2023-06-25T20:08:34.173Z,21.80
2023-06-25T20:11:04.019Z,21.60
2023-06-25T20:13:32.118Z,21.40
2023-06-25T20:16:00.204Z,21.20
2023-06-25T20:18:28.305Z,21.10
2023-06-25T20:20:56.416Z,21.00
2023-06-25T20:23:24.561Z,20.80
2023-06-25T20:25:52.836Z,20.70
2023-06-25T20:28:22.511Z,20.60
2023-06-25T20:30:50.751Z,20.50
2023-06-25T20:33:18.837Z,20.40
2023-06-25T20:35:47.025Z,20.30
2023-06-25T20:38:15.145Z,20.30
2023-06-25T20:40:43.251Z,20.20
2023-06-25T20:43:11.401Z,20.10
2023-06-25T20:45:41.889Z,20.00
2023-06-25T20:48:11.117Z,19.90
2023-06-25T20:50:39.587Z,19.80
2023-06-25T20:53:07.845Z,19.70
2023-06-25T20:55:35.948Z,19.60
2023-06-25T20:58:03.989Z,19.50
2023-06-25T21:00:35.236Z,19.30
2023-06-25T21:03:06.850Z,19.20
2023-06-25T21:05:34.983Z,19.00
2023-06-25T21:08:03.140Z,18.70
2023-06-25T21:10:32.566Z,18.70
2023-06-25T21:13:00.615Z,18.70
2023-06-25T21:15:28.809Z,18.70
2023-06-25T21:17:57.058Z,18.70
2023-06-25T21:20:26.580Z,18.70
2023-06-25T21:22:55.550Z,18.60
2023-06-25T21:25:23.635Z,18.50
2023-06-25T21:27:51.670Z,18.50
2023-06-25T21:30:19.857Z,18.50
2023-06-25T21:32:48.083Z,18.40
2023-06-25T21:35:16.688Z,18.30
2023-06-25T21:37:46.170Z,18.20
2023-06-25T21:40:14.272Z,18.10
2023-06-25T21:42:42.332Z,18.10
2023-06-25T21:45:10.697Z,18.00
2023-06-25T21:47:38.821Z,17.90
2023-06-25T21:50:07.981Z,17.80
2023-06-25T21:52:36.058Z,17.70
2023-06-25T21:55:07.395Z,17.60
2023-06-25T21:57:35.555Z,17.60
2023-06-25T22:00:05.128Z,17.60
2023-06-25T22:02:33.297Z,17.60
2023-06-25T22:05:01.399Z,17.50
2023-06-25T22:07:29.521Z,17.40
2023-06-25T22:09:57.647Z,17.40
2023-06-25T22:12:27.187Z,17.30
2023-06-25T22:14:55.540Z,17.20
2023-06-25T22:17:25.139Z,17.10
2023-06-25T22:19:54.270Z,17.10
2023-06-25T22:22:22.803Z,17.10
2023-06-25T22:24:51.127Z,17.00
2023-06-25T22:27:19.291Z,17.00
2023-06-25T22:29:48.792Z,16.90
2023-06-25T22:32:17.075Z,17.00
2023-06-25T22:34:46.073Z,16.90
2023-06-25T22:37:14.426Z,16.90
2023-06-25T22:39:42.504Z,16.90
2023-06-25T22:42:10.619Z,16.80
2023-06-25T22:44:38.724Z,16.80
2023-06-25T22:47:08.884Z,16.70
2023-06-25T22:49:36.952Z,16.60
2023-06-25T22:52:05.907Z,16.50
2023-06-25T22:54:34.012Z,16.40
2023-06-25T22:57:02.088Z,16.40
2023-06-25T22:59:30.203Z,16.40
2023-06-25T23:01:58.946Z,16.20
2023-06-25T23:04:28.530Z,16.20
2023-06-25T23:06:56.700Z,16.20
2023-06-25T23:09:24.939Z,16.20
2023-06-25T23:11:53.020Z,16.10
2023-06-25T23:14:21.108Z,16.10
2023-06-25T23:16:49.727Z,16.00
2023-06-25T23:19:20.683Z,16.00
2023-06-25T23:21:50.096Z,15.90
2023-06-25T23:24:18.326Z,15.90
2023-06-25T23:26:47.727Z,15.90
2023-06-25T23:29:18.532Z,15.90
2023-06-25T23:31:47.129Z,16.00
2023-06-25T23:34:15.300Z,15.70
2023-06-25T23:36:43.483Z,15.60
2023-06-25T23:39:13.001Z,15.60
2023-06-25T23:41:41.201Z,15.60
2023-06-25T23:44:09.354Z,15.60
2023-06-25T23:46:37.593Z,15.50
2023-06-25T23:49:06.586Z,15.60
2023-06-25T23:51:35.437Z,15.50
2023-06-25T23:54:03.806Z,15.60
2023-06-25T23:56:35.003Z,15.60
2023-06-25T23:59:03.975Z,15.50
